sensor_id;sensor_type;location;lat;lon;timestamp;pressure;altitude;pressure_sealevel;temperature;humidity
69027;BME280;56080;47.594;19.116;2023-02-02T00:05:03;99948;;;4.92;84.71
69027;BME280;56080;47.594;19.116;2023-02-02T00:15:04;99948;;;4.66;86.79
69027;BME280;56080;47.594;19.116;2023-02-02T00:25:04;99936;;;4.51;89.08
69027;BME280;56080;47.594;19.116;2023-02-02T00:35:05;99889;;;4.21;89.43
69027;BME280;56080;47.594;19.116;2023-02-02T00:45:15;99907;;;4.20;90.07
69027;BME280;56080;47.594;19.116;2023-02-02T00:55:07;99944;;;4.17;89.26
69027;BME280;56080;47.594;19.116;2023-02-02T01:05:06;99924;;;4.27;87.83
69027;BME280;56080;47.594;19.116;2023-02-02T01:15:07;99929;;;4.31;85.86
69027;BME280;56080;47.594;19.116;2023-02-02T01:25:07;99940;;;4.33;86.22
69027;BME280;56080;47.594;19.116;2023-02-02T01:35:09;99962;;;4.22;86.40
69027;BME280;56080;47.594;19.116;2023-02-02T01:45:16;99957;;;4.19;87.15
69027;BME280;56080;47.594;19.116;2023-02-02T01:55:09;99912;;;4.14;85.55
69027;BME280;56080;47.594;19.116;2023-02-02T02:05:08;99905;;;4.11;84.32
69027;BME280;56080;47.594;19.116;2023-02-02T02:15:19;99900;;;4.12;84.18
69027;BME280;56080;47.594;19.116;2023-02-02T02:25:29;99881;;;4.25;83.16
69027;BME280;56080;47.594;19.116;2023-02-02T02:45:10;99894;;;4.26;83.23
69027;BME280;56080;47.594;19.116;2023-02-02T02:55:12;99886;;;4.19;83.38
69027;BME280;56080;47.594;19.116;2023-02-02T03:15:12;99893;;;4.09;84.87
69027;BME280;56080;47.594;19.116;2023-02-02T03:25:12;99900;;;4.11;83.91
69027;BME280;56080;47.594;19.116;2023-02-02T03:35:12;99918;;;4.07;83.47
69027;BME280;56080;47.594;19.116;2023-02-02T03:45:13;99915;;;4.04;82.81
69027;BME280;56080;47.594;19.116;2023-02-02T03:55:13;99899;;;3.97;82.38
69027;BME280;56080;47.594;19.116;2023-02-02T04:05:13;99898;;;3.91;82.45
69027;BME280;56080;47.594;19.116;2023-02-02T04:15:14;99887;;;3.82;81.88
69027;BME280;56080;47.594;19.116;2023-02-02T04:25:14;99915;;;3.82;82.14
69027;BME280;56080;47.594;19.116;2023-02-02T04:35:14;99933;;;3.78;81.67
69027;BME280;56080;47.594;19.116;2023-02-02T04:45:15;99941;;;3.75;81.91
69027;BME280;56080;47.594;19.116;2023-02-02T04:55:15;99946;;;3.65;81.92
69027;BME280;56080;47.594;19.116;2023-02-02T05:05:16;99972;;;3.60;81.84
69027;BME280;56080;47.594;19.116;2023-02-02T05:15:16;99987;;;3.63;81.44
69027;BME280;56080;47.594;19.116;2023-02-02T05:25:16;100000;;;3.63;81.13
69027;BME280;56080;47.594;19.116;2023-02-02T05:35:17;100012;;;3.67;80.29
69027;BME280;56080;47.594;19.116;2023-02-02T05:45:17;100034;;;3.79;80.30
69027;BME280;56080;47.594;19.116;2023-02-02T05:55:19;100035;;;3.70;79.77
69027;BME280;56080;47.594;19.116;2023-02-02T06:05:18;100036;;;3.72;79.96
69027;BME280;56080;47.594;19.116;2023-02-02T06:15:18;100043;;;3.64;79.74
69027;BME280;56080;47.594;19.116;2023-02-02T06:25:19;100032;;;3.46;79.51
69027;BME280;56080;47.594;19.116;2023-02-02T06:35:19;100014;;;3.44;79.42
69027;BME280;56080;47.594;19.116;2023-02-02T06:45:19;100013;;;3.49;79.23
69027;BME280;56080;47.594;19.116;2023-02-02T06:55:20;100022;;;3.51;78.95
69027;BME280;56080;47.594;19.116;2023-02-02T07:05:22;100036;;;3.68;78.08
69027;BME280;56080;47.594;19.116;2023-02-02T07:15:21;100077;;;3.87;77.23
69027;BME280;56080;47.594;19.116;2023-02-02T07:25:21;100092;;;4.00;76.53
69027;BME280;56080;47.594;19.116;2023-02-02T07:35:21;100109;;;4.16;75.99
69027;BME280;56080;47.594;19.116;2023-02-02T07:45:28;100111;;;4.71;73.26
69027;BME280;56080;47.594;19.116;2023-02-02T07:55:22;100126;;;5.58;69.58
69027;BME280;56080;47.594;19.116;2023-02-02T08:05:23;100132;;;6.59;65.42
69027;BME280;56080;47.594;19.116;2023-02-02T08:15:23;100105;;;7.53;62.20
69027;BME280;56080;47.594;19.116;2023-02-02T08:25:24;100104;;;7.77;60.23
69027;BME280;56080;47.594;19.116;2023-02-02T08:35:25;100090;;;8.08;58.96
69027;BME280;56080;47.594;19.116;2023-02-02T08:45:35;100083;;;8.56;57.00
69027;BME280;56080;47.594;19.116;2023-02-02T08:55:26;100073;;;9.29;54.99
69027;BME280;56080;47.594;19.116;2023-02-02T09:05:27;100097;;;9.14;54.31
69027;BME280;56080;47.594;19.116;2023-02-02T09:15:27;100113;;;7.90;57.18
69027;BME280;56080;47.594;19.116;2023-02-02T09:25:28;100119;;;8.07;57.67
69027;BME280;56080;47.594;19.116;2023-02-02T09:35:29;100121;;;7.69;58.18
69027;BME280;56080;47.594;19.116;2023-02-02T09:45:35;100114;;;9.43;53.46
69027;BME280;56080;47.594;19.116;2023-02-02T09:55:33;100124;;;9.11;53.02
69027;BME280;56080;47.594;19.116;2023-02-02T10:05:42;100131;;;7.88;56.51
69027;BME280;56080;47.594;19.116;2023-02-02T10:15:36;100127;;;7.72;56.88
69027;BME280;56080;47.594;19.116;2023-02-02T10:25:32;100116;;;8.21;55.95
69027;BME280;56080;47.594;19.116;2023-02-02T10:35:37;100128;;;7.62;56.94
69027;BME280;56080;47.594;19.116;2023-02-02T10:45:34;100125;;;7.90;57.08
69027;BME280;56080;47.594;19.116;2023-02-02T11:05:45;100118;;;7.99;57.10
69027;BME280;56080;47.594;19.116;2023-02-02T11:15:38;100124;;;8.14;56.52
69027;BME280;56080;47.594;19.116;2023-02-02T11:25:36;100126;;;7.87;57.36
69027;BME280;56080;47.594;19.116;2023-02-02T11:35:38;100115;;;8.23;56.97
69027;BME280;56080;47.594;19.116;2023-02-02T11:45:44;100145;;;8.00;57.56
69027;BME280;56080;47.594;19.116;2023-02-02T11:55:38;100160;;;7.38;59.40
69027;BME280;56080;47.594;19.116;2023-02-02T12:05:41;100165;;;7.16;60.12
69027;BME280;56080;47.594;19.116;2023-02-02T12:45:44;100151;;;6.91;60.67
69027;BME280;56080;47.594;19.116;2023-02-02T13:15:45;100153;;;6.76;61.86
69027;BME280;56080;47.594;19.116;2023-02-02T13:35:48;100166;;;6.63;62.08
69027;BME280;56080;47.594;19.116;2023-02-02T13:55:52;100168;;;6.55;63.32
69027;BME280;56080;47.594;19.116;2023-02-02T14:05:47;100178;;;6.59;63.05
69027;BME280;56080;47.594;19.116;2023-02-02T14:15:48;100176;;;6.86;62.95
69027;BME280;56080;47.594;19.116;2023-02-02T14:35:54;100190;;;6.57;63.12
69027;BME280;56080;47.594;19.116;2023-02-02T15:06:00;100196;;;6.37;63.18
69027;BME280;56080;47.594;19.116;2023-02-02T15:15:54;100204;;;6.47;63.20
69027;BME280;56080;47.594;19.116;2023-02-02T15:35:51;100228;;;6.21;63.52
69027;BME280;56080;47.594;19.116;2023-02-02T15:45:54;100243;;;6.32;63.64
69027;BME280;56080;47.594;19.116;2023-02-02T15:55:52;100259;;;6.28;64.06
69027;BME280;56080;47.594;19.116;2023-02-02T16:05:53;100273;;;6.04;64.99
69027;BME280;56080;47.594;19.116;2023-02-02T16:15:58;100298;;;6.03;65.42
69027;BME280;56080;47.594;19.116;2023-02-02T16:25:54;100309;;;5.94;66.22
69027;BME280;56080;47.594;19.116;2023-02-02T16:45:55;100335;;;5.83;66.67
69027;BME280;56080;47.594;19.116;2023-02-02T16:55:57;100366;;;5.76;67.23
69027;BME280;56080;47.594;19.116;2023-02-02T17:05:58;100372;;;5.66;67.52
69027;BME280;56080;47.594;19.116;2023-02-02T17:16:00;100384;;;5.66;67.92
69027;BME280;56080;47.594;19.116;2023-02-02T17:25:57;100400;;;5.66;68.35
69027;BME280;56080;47.594;19.116;2023-02-02T17:36:01;100404;;;5.47;68.91
69027;BME280;56080;47.594;19.116;2023-02-02T17:56:00;100416;;;5.49;70.28
69027;BME280;56080;47.594;19.116;2023-02-02T18:06:01;100428;;;5.29;70.98
69027;BME280;56080;47.594;19.116;2023-02-02T18:16:04;100450;;;5.20;71.32
69027;BME280;56080;47.594;19.116;2023-02-02T18:26:10;100459;;;5.28;71.41
69027;BME280;56080;47.594;19.116;2023-02-02T18:36:07;100482;;;5.18;72.12
69027;BME280;56080;47.594;19.116;2023-02-02T18:46:06;100484;;;5.08;73.05
69027;BME280;56080;47.594;19.116;2023-02-02T18:56:03;100476;;;4.83;73.85
69027;BME280;56080;47.594;19.116;2023-02-02T19:16:03;100490;;;4.51;75.54
69027;BME280;56080;47.594;19.116;2023-02-02T19:26:24;100491;;;4.51;76.11
69027;BME280;56080;47.594;19.116;2023-02-02T19:36:09;100482;;;4.35;76.52
69027;BME280;56080;47.594;19.116;2023-02-02T19:46:11;100486;;;4.26;76.59
69027;BME280;56080;47.594;19.116;2023-02-02T19:56:19;100504;;;4.30;76.32
69027;BME280;56080;47.594;19.116;2023-02-02T20:06:04;100545;;;4.32;76.51
69027;BME280;56080;47.594;19.116;2023-02-02T20:16:08;100551;;;4.28;76.65
69027;BME280;56080;47.594;19.116;2023-02-02T20:26:36;100558;;;4.13;77.54
69027;BME280;56080;47.594;19.116;2023-02-02T20:36:27;100566;;;4.01;78.40
69027;BME280;56080;47.594;19.116;2023-02-02T20:46:07;100583;;;4.05;78.43
69027;BME280;56080;47.594;19.116;2023-02-02T20:56:05;100595;;;4.04;78.73
69027;BME280;56080;47.594;19.116;2023-02-02T21:16:06;100629;;;4.01;79.17
69027;BME280;56080;47.594;19.116;2023-02-02T21:26:08;100631;;;3.94;79.86
69027;BME280;56080;47.594;19.116;2023-02-02T21:36:25;100623;;;3.83;80.26
69027;BME280;56080;47.594;19.116;2023-02-02T21:46:22;100610;;;3.85;80.01
69027;BME280;56080;47.594;19.116;2023-02-02T21:56:08;100626;;;3.85;79.72
69027;BME280;56080;47.594;19.116;2023-02-02T22:16:12;100641;;;3.77;79.70
69027;BME280;56080;47.594;19.116;2023-02-02T22:26:15;100654;;;3.82;79.59
69027;BME280;56080;47.594;19.116;2023-02-02T22:36:10;100679;;;3.69;80.35
69027;BME280;56080;47.594;19.116;2023-02-02T22:46:09;100686;;;3.58;80.10
69027;BME280;56080;47.594;19.116;2023-02-02T22:56:10;100696;;;3.47;79.96
69027;BME280;56080;47.594;19.116;2023-02-02T23:06:10;100711;;;3.49;79.23
69027;BME280;56080;47.594;19.116;2023-02-02T23:16:12;100717;;;3.48;78.86
69027;BME280;56080;47.594;19.116;2023-02-02T23:26:11;100739;;;3.35;78.42
69027;BME280;56080;47.594;19.116;2023-02-02T23:36:11;100754;;;3.36;77.23
69027;BME280;56080;47.594;19.116;2023-02-02T23:46:12;100774;;;3.25;76.89
69027;BME280;56080;47.594;19.116;2023-02-02T23:56:12;100796;;;3.10;76.30
